Terminal Aerodrome Forecast
Issued by NWS

Home | Current Version | Previous Version | Text Only | Print | Product List | Glossary On
Versions: 1 2 3 4 5 6 7 8 9 10 11 12 13 14 15 16 17 18
575
FTUS43 KJKL 251723
TAFSME
TAF
KSME 251723Z 2518/2618 20011G21KT P6SM OVC250
     FM252300 16006KT P6SM BKN200
     FM260800 16005KT 5SM -SHRA VCTS FEW015CB OVC020=

USA.gov is the U.S. government's official web portal to all federal, state and local government web resources and services.